sensor_id;sensor_type;location;lat;lon;timestamp;P1;durP1;ratioP1;P2;durP2;ratioP2
11535;SDS011;5824;49.336;8.652;2023-10-19T00:00:46;19.33;;;10.37;;
11535;SDS011;5824;49.336;8.652;2023-10-19T00:03:16;17.40;;;10.50;;
11535;SDS011;5824;49.336;8.652;2023-10-19T00:05:43;19.80;;;10.87;;
11535;SDS011;5824;49.336;8.652;2023-10-19T00:08:11;18.97;;;10.80;;
11535;SDS011;5824;49.336;8.652;2023-10-19T00:10:37;17.40;;;11.10;;
11535;SDS011;5824;49.336;8.652;2023-10-19T00:13:04;18.40;;;10.20;;
11535;SDS011;5824;49.336;8.652;2023-10-19T00:15:31;21.20;;;11.07;;
11535;SDS011;5824;49.336;8.652;2023-10-19T00:17:59;20.93;;;11.00;;
11535;SDS011;5824;49.336;8.652;2023-10-19T00:20:33;23.30;;;12.07;;
11535;SDS011;5824;49.336;8.652;2023-10-19T00:23:18;18.10;;;10.87;;
11535;SDS011;5824;49.336;8.652;2023-10-19T00:25:54;18.50;;;11.30;;
11535;SDS011;5824;49.336;8.652;2023-10-19T00:28:20;20.90;;;11.20;;
11535;SDS011;5824;49.336;8.652;2023-10-19T00:30:47;24.70;;;11.63;;
11535;SDS011;5824;49.336;8.652;2023-10-19T00:33:14;20.97;;;11.30;;
11535;SDS011;5824;49.336;8.652;2023-10-19T00:35:43;22.57;;;10.97;;
11535;SDS011;5824;49.336;8.652;2023-10-19T00:38:12;20.03;;;10.83;;
11535;SDS011;5824;49.336;8.652;2023-10-19T00:40:57;21.63;;;11.00;;
11535;SDS011;5824;49.336;8.652;2023-10-19T00:43:32;17.43;;;10.20;;
11535;SDS011;5824;49.336;8.652;2023-10-19T00:46:01;14.57;;;9.80;;
11535;SDS011;5824;49.336;8.652;2023-10-19T00:48:35;20.90;;;10.27;;
11535;SDS011;5824;49.336;8.652;2023-10-19T00:51:02;19.20;;;10.40;;
11535;SDS011;5824;49.336;8.652;2023-10-19T00:53:46;16.50;;;10.00;;
11535;SDS011;5824;49.336;8.652;2023-10-19T00:56:13;18.17;;;10.53;;
11535;SDS011;5824;49.336;8.652;2023-10-19T00:58:42;20.10;;;10.80;;
11535;SDS011;5824;49.336;8.652;2023-10-19T01:01:12;17.97;;;10.47;;
11535;SDS011;5824;49.336;8.652;2023-10-19T01:03:39;15.70;;;8.90;;
11535;SDS011;5824;49.336;8.652;2023-10-19T01:06:05;13.73;;;8.97;;
11535;SDS011;5824;49.336;8.652;2023-10-19T01:08:34;16.97;;;9.70;;
11535;SDS011;5824;49.336;8.652;2023-10-19T01:11:06;15.00;;;9.23;;
11535;SDS011;5824;49.336;8.652;2023-10-19T01:13:36;16.67;;;9.90;;
11535;SDS011;5824;49.336;8.652;2023-10-19T01:16:02;17.97;;;9.70;;
11535;SDS011;5824;49.336;8.652;2023-10-19T01:18:29;17.27;;;9.53;;
11535;SDS011;5824;49.336;8.652;2023-10-19T01:20:58;15.93;;;10.30;;
11535;SDS011;5824;49.336;8.652;2023-10-19T01:23:27;18.80;;;9.73;;
11535;SDS011;5824;49.336;8.652;2023-10-19T01:25:54;18.90;;;10.17;;
11535;SDS011;5824;49.336;8.652;2023-10-19T01:28:25;23.00;;;9.20;;
11535;SDS011;5824;49.336;8.652;2023-10-19T01:31:07;13.53;;;8.87;;
11535;SDS011;5824;49.336;8.652;2023-10-19T01:33:39;15.77;;;10.20;;
11535;SDS011;5824;49.336;8.652;2023-10-19T01:36:06;15.47;;;8.77;;
11535;SDS011;5824;49.336;8.652;2023-10-19T01:38:36;19.50;;;9.07;;
11535;SDS011;5824;49.336;8.652;2023-10-19T01:41:02;19.20;;;8.80;;
11535;SDS011;5824;49.336;8.652;2023-10-19T01:43:45;17.80;;;9.20;;
11535;SDS011;5824;49.336;8.652;2023-10-19T01:46:14;19.27;;;8.77;;
11535;SDS011;5824;49.336;8.652;2023-10-19T01:48:47;15.47;;;8.50;;
11535;SDS011;5824;49.336;8.652;2023-10-19T01:51:20;12.93;;;8.10;;
11535;SDS011;5824;49.336;8.652;2023-10-19T01:53:47;16.10;;;8.10;;
11535;SDS011;5824;49.336;8.652;2023-10-19T01:56:14;14.07;;;8.33;;
11535;SDS011;5824;49.336;8.652;2023-10-19T01:58:44;16.10;;;8.90;;
11535;SDS011;5824;49.336;8.652;2023-10-19T02:01:14;10.90;;;7.87;;
11535;SDS011;5824;49.336;8.652;2023-10-19T02:03:46;14.20;;;8.50;;
11535;SDS011;5824;49.336;8.652;2023-10-19T02:06:13;16.57;;;8.57;;
11535;SDS011;5824;49.336;8.652;2023-10-19T02:08:49;17.17;;;8.60;;
11535;SDS011;5824;49.336;8.652;2023-10-19T02:11:21;15.07;;;9.30;;
11535;SDS011;5824;49.336;8.652;2023-10-19T02:13:48;16.97;;;9.90;;
11535;SDS011;5824;49.336;8.652;2023-10-19T02:16:15;15.23;;;9.70;;
11535;SDS011;5824;49.336;8.652;2023-10-19T02:18:43;18.20;;;10.10;;
11535;SDS011;5824;49.336;8.652;2023-10-19T02:21:09;14.87;;;9.13;;
11535;SDS011;5824;49.336;8.652;2023-10-19T02:23:37;15.23;;;9.40;;
11535;SDS011;5824;49.336;8.652;2023-10-19T02:26:04;15.97;;;9.33;;
11535;SDS011;5824;49.336;8.652;2023-10-19T02:28:30;13.70;;;8.30;;
11535;SDS011;5824;49.336;8.652;2023-10-19T02:30:57;15.67;;;9.17;;
11535;SDS011;5824;49.336;8.652;2023-10-19T02:33:37;19.53;;;9.10;;
11535;SDS011;5824;49.336;8.652;2023-10-19T02:36:03;18.93;;;9.03;;
11535;SDS011;5824;49.336;8.652;2023-10-19T02:38:29;16.10;;;9.33;;
11535;SDS011;5824;49.336;8.652;2023-10-19T02:40:55;18.90;;;10.17;;
11535;SDS011;5824;49.336;8.652;2023-10-19T02:43:20;17.00;;;9.53;;
11535;SDS011;5824;49.336;8.652;2023-10-19T02:45:49;15.13;;;9.90;;
11535;SDS011;5824;49.336;8.652;2023-10-19T02:48:14;20.33;;;10.10;;
11535;SDS011;5824;49.336;8.652;2023-10-19T02:50:41;19.13;;;11.80;;
11535;SDS011;5824;49.336;8.652;2023-10-19T02:53:06;19.17;;;10.67;;
11535;SDS011;5824;49.336;8.652;2023-10-19T02:55:32;18.33;;;10.70;;
11535;SDS011;5824;49.336;8.652;2023-10-19T02:57:57;16.47;;;9.77;;
11535;SDS011;5824;49.336;8.652;2023-10-19T03:00:24;15.83;;;9.90;;
11535;SDS011;5824;49.336;8.652;2023-10-19T03:02:57;17.30;;;11.10;;
11535;SDS011;5824;49.336;8.652;2023-10-19T03:05:24;20.20;;;10.57;;
11535;SDS011;5824;49.336;8.652;2023-10-19T03:07:51;25.50;;;10.20;;
11535;SDS011;5824;49.336;8.652;2023-10-19T03:10:17;19.83;;;9.73;;
11535;SDS011;5824;49.336;8.652;2023-10-19T03:12:59;17.57;;;10.00;;
11535;SDS011;5824;49.336;8.652;2023-10-19T03:15:25;22.23;;;10.80;;
11535;SDS011;5824;49.336;8.652;2023-10-19T03:17:52;16.73;;;9.97;;
11535;SDS011;5824;49.336;8.652;2023-10-19T03:20:17;18.03;;;9.90;;
11535;SDS011;5824;49.336;8.652;2023-10-19T03:22:48;25.30;;;10.40;;
11535;SDS011;5824;49.336;8.652;2023-10-19T03:25:13;21.13;;;11.37;;
11535;SDS011;5824;49.336;8.652;2023-10-19T03:27:59;19.73;;;10.00;;
11535;SDS011;5824;49.336;8.652;2023-10-19T03:30:35;19.47;;;11.90;;
11535;SDS011;5824;49.336;8.652;2023-10-19T03:33:05;17.30;;;10.90;;
11535;SDS011;5824;49.336;8.652;2023-10-19T03:35:36;18.80;;;10.07;;
11535;SDS011;5824;49.336;8.652;2023-10-19T03:38:03;20.40;;;10.60;;
11535;SDS011;5824;49.336;8.652;2023-10-19T03:40:39;25.50;;;12.13;;
11535;SDS011;5824;49.336;8.652;2023-10-19T03:43:04;21.43;;;11.80;;
11535;SDS011;5824;49.336;8.652;2023-10-19T03:45:41;21.07;;;11.13;;
11535;SDS011;5824;49.336;8.652;2023-10-19T03:48:12;20.30;;;10.23;;
11535;SDS011;5824;49.336;8.652;2023-10-19T03:50:38;23.00;;;10.87;;
11535;SDS011;5824;49.336;8.652;2023-10-19T03:53:03;24.20;;;11.20;;
11535;SDS011;5824;49.336;8.652;2023-10-19T03:55:32;22.63;;;10.13;;
11535;SDS011;5824;49.336;8.652;2023-10-19T03:58:03;18.40;;;10.27;;
11535;SDS011;5824;49.336;8.652;2023-10-19T04:00:29;23.40;;;10.10;;
11535;SDS011;5824;49.336;8.652;2023-10-19T04:02:58;26.00;;;11.03;;
11535;SDS011;5824;49.336;8.652;2023-10-19T04:05:24;22.20;;;11.50;;
11535;SDS011;5824;49.336;8.652;2023-10-19T04:07:51;21.40;;;11.63;;
11535;SDS011;5824;49.336;8.652;2023-10-19T04:10:20;22.00;;;10.70;;
11535;SDS011;5824;49.336;8.652;2023-10-19T04:12:55;19.00;;;10.00;;
11535;SDS011;5824;49.336;8.652;2023-10-19T04:15:24;18.20;;;10.87;;
11535;SDS011;5824;49.336;8.652;2023-10-19T04:17:51;16.83;;;9.67;;
11535;SDS011;5824;49.336;8.652;2023-10-19T04:20:20;17.00;;;9.30;;
11535;SDS011;5824;49.336;8.652;2023-10-19T04:22:45;16.00;;;10.00;;
11535;SDS011;5824;49.336;8.652;2023-10-19T04:25:13;14.90;;;8.83;;
11535;SDS011;5824;49.336;8.652;2023-10-19T04:27:40;18.90;;;8.83;;
11535;SDS011;5824;49.336;8.652;2023-10-19T04:30:07;16.00;;;8.70;;
11535;SDS011;5824;49.336;8.652;2023-10-19T04:32:52;17.00;;;9.63;;
11535;SDS011;5824;49.336;8.652;2023-10-19T04:35:18;15.27;;;8.20;;
11535;SDS011;5824;49.336;8.652;2023-10-19T04:37:50;17.83;;;9.00;;
11535;SDS011;5824;49.336;8.652;2023-10-19T04:40:17;19.80;;;9.30;;
11535;SDS011;5824;49.336;8.652;2023-10-19T04:42:44;19.10;;;8.70;;
11535;SDS011;5824;49.336;8.652;2023-10-19T04:45:10;14.93;;;8.97;;
11535;SDS011;5824;49.336;8.652;2023-10-19T04:47:36;15.00;;;7.87;;
11535;SDS011;5824;49.336;8.652;2023-10-19T04:50:03;19.07;;;9.10;;
11535;SDS011;5824;49.336;8.652;2023-10-19T04:52:29;25.07;;;8.80;;
11535;SDS011;5824;49.336;8.652;2023-10-19T04:54:55;16.57;;;8.27;;
11535;SDS011;5824;49.336;8.652;2023-10-19T04:57:20;18.10;;;8.63;;
11535;SDS011;5824;49.336;8.652;2023-10-19T04:59:46;13.40;;;8.03;;
11535;SDS011;5824;49.336;8.652;2023-10-19T05:02:12;15.60;;;8.20;;
11535;SDS011;5824;49.336;8.652;2023-10-19T05:04:38;19.80;;;9.33;;
11535;SDS011;5824;49.336;8.652;2023-10-19T05:07:03;14.43;;;8.57;;
11535;SDS011;5824;49.336;8.652;2023-10-19T05:09:32;11.57;;;8.00;;
11535;SDS011;5824;49.336;8.652;2023-10-19T05:11:57;16.30;;;8.83;;
11535;SDS011;5824;49.336;8.652;2023-10-19T05:14:23;15.97;;;7.90;;
11535;SDS011;5824;49.336;8.652;2023-10-19T05:16:49;13.80;;;7.73;;
11535;SDS011;5824;49.336;8.652;2023-10-19T05:19:15;15.63;;;8.30;;
11535;SDS011;5824;49.336;8.652;2023-10-19T05:21:40;17.30;;;8.37;;
11535;SDS011;5824;49.336;8.652;2023-10-19T05:24:06;15.30;;;8.63;;
11535;SDS011;5824;49.336;8.652;2023-10-19T05:26:35;18.13;;;8.97;;
11535;SDS011;5824;49.336;8.652;2023-10-19T05:29:00;15.63;;;9.30;;
11535;SDS011;5824;49.336;8.652;2023-10-19T05:31:26;17.30;;;9.30;;
11535;SDS011;5824;49.336;8.652;2023-10-19T05:33:53;14.13;;;8.63;;
11535;SDS011;5824;49.336;8.652;2023-10-19T05:36:18;13.77;;;8.67;;
11535;SDS011;5824;49.336;8.652;2023-10-19T05:38:44;19.37;;;8.63;;
11535;SDS011;5824;49.336;8.652;2023-10-19T05:41:10;14.50;;;8.47;;
11535;SDS011;5824;49.336;8.652;2023-10-19T05:43:37;15.80;;;8.97;;
11535;SDS011;5824;49.336;8.652;2023-10-19T05:46:03;14.80;;;8.57;;
11535;SDS011;5824;49.336;8.652;2023-10-19T05:48:29;13.23;;;8.23;;
11535;SDS011;5824;49.336;8.652;2023-10-19T05:50:56;14.63;;;7.90;;
11535;SDS011;5824;49.336;8.652;2023-10-19T05:53:21;14.77;;;8.57;;
11535;SDS011;5824;49.336;8.652;2023-10-19T05:55:48;15.20;;;8.77;;
11535;SDS011;5824;49.336;8.652;2023-10-19T05:58:14;18.53;;;9.40;;
11535;SDS011;5824;49.336;8.652;2023-10-19T06:00:40;15.90;;;9.00;;
11535;SDS011;5824;49.336;8.652;2023-10-19T06:03:06;14.90;;;8.70;;
11535;SDS011;5824;49.336;8.652;2023-10-19T06:05:32;12.50;;;7.73;;
11535;SDS011;5824;49.336;8.652;2023-10-19T06:07:58;12.77;;;7.73;;
11535;SDS011;5824;49.336;8.652;2023-10-19T06:10:25;12.87;;;8.00;;
11535;SDS011;5824;49.336;8.652;2023-10-19T06:12:52;14.40;;;8.53;;
11535;SDS011;5824;49.336;8.652;2023-10-19T06:15:18;14.20;;;8.10;;
11535;SDS011;5824;49.336;8.652;2023-10-19T06:17:46;14.70;;;8.13;;
11535;SDS011;5824;49.336;8.652;2023-10-19T06:20:13;15.32;;;9.30;;
11535;SDS011;5824;49.336;8.652;2023-10-19T06:22:45;21.57;;;9.47;;
11535;SDS011;5824;49.336;8.652;2023-10-19T06:25:16;13.87;;;8.00;;
11535;SDS011;5824;49.336;8.652;2023-10-19T06:27:46;13.07;;;8.57;;
11535;SDS011;5824;49.336;8.652;2023-10-19T06:30:13;15.67;;;8.77;;
11535;SDS011;5824;49.336;8.652;2023-10-19T06:32:43;14.07;;;9.47;;
11535;SDS011;5824;49.336;8.652;2023-10-19T06:35:13;14.23;;;7.80;;
11535;SDS011;5824;49.336;8.652;2023-10-19T06:37:38;15.20;;;8.63;;
11535;SDS011;5824;49.336;8.652;2023-10-19T06:40:05;15.03;;;8.03;;
11535;SDS011;5824;49.336;8.652;2023-10-19T06:42:31;17.03;;;9.20;;
11535;SDS011;5824;49.336;8.652;2023-10-19T06:44:57;17.47;;;9.00;;
11535;SDS011;5824;49.336;8.652;2023-10-19T06:47:22;14.00;;;9.00;;
11535;SDS011;5824;49.336;8.652;2023-10-19T06:49:48;16.70;;;8.97;;
11535;SDS011;5824;49.336;8.652;2023-10-19T06:52:15;13.87;;;8.70;;
11535;SDS011;5824;49.336;8.652;2023-10-19T06:54:41;19.10;;;9.27;;
11535;SDS011;5824;49.336;8.652;2023-10-19T06:57:06;15.27;;;8.90;;
11535;SDS011;5824;49.336;8.652;2023-10-19T06:59:33;13.90;;;8.60;;
11535;SDS011;5824;49.336;8.652;2023-10-19T07:02:00;21.10;;;8.40;;
11535;SDS011;5824;49.336;8.652;2023-10-19T07:04:26;14.07;;;8.63;;
11535;SDS011;5824;49.336;8.652;2023-10-19T07:06:53;18.43;;;9.30;;
11535;SDS011;5824;49.336;8.652;2023-10-19T07:09:18;14.60;;;8.93;;
11535;SDS011;5824;49.336;8.652;2023-10-19T07:11:44;15.70;;;8.77;;
11535;SDS011;5824;49.336;8.652;2023-10-19T07:14:11;14.90;;;9.03;;
11535;SDS011;5824;49.336;8.652;2023-10-19T07:16:37;14.10;;;8.17;;
11535;SDS011;5824;49.336;8.652;2023-10-19T07:19:05;14.83;;;8.20;;
11535;SDS011;5824;49.336;8.652;2023-10-19T07:21:30;12.90;;;8.50;;
11535;SDS011;5824;49.336;8.652;2023-10-19T07:24:00;13.10;;;8.20;;
11535;SDS011;5824;49.336;8.652;2023-10-19T07:26:30;14.07;;;8.67;;
11535;SDS011;5824;49.336;8.652;2023-10-19T07:29:06;12.60;;;7.73;;
11535;SDS011;5824;49.336;8.652;2023-10-19T07:31:35;17.43;;;8.83;;
11535;SDS011;5824;49.336;8.652;2023-10-19T07:34:00;11.13;;;8.20;;
11535;SDS011;5824;49.336;8.652;2023-10-19T07:36:26;14.93;;;8.50;;
11535;SDS011;5824;49.336;8.652;2023-10-19T07:38:53;15.33;;;8.83;;
11535;SDS011;5824;49.336;8.652;2023-10-19T07:41:20;15.30;;;8.57;;
11535;SDS011;5824;49.336;8.652;2023-10-19T07:43:46;15.50;;;9.10;;
11535;SDS011;5824;49.336;8.652;2023-10-19T07:46:12;18.53;;;8.10;;
11535;SDS011;5824;49.336;8.652;2023-10-19T07:48:38;13.10;;;8.20;;
11535;SDS011;5824;49.336;8.652;2023-10-19T07:51:03;10.50;;;7.60;;
11535;SDS011;5824;49.336;8.652;2023-10-19T07:53:29;13.27;;;7.67;;
11535;SDS011;5824;49.336;8.652;2023-10-19T07:55:55;12.57;;;7.53;;
11535;SDS011;5824;49.336;8.652;2023-10-19T07:58:22;13.43;;;8.17;;
11535;SDS011;5824;49.336;8.652;2023-10-19T08:00:47;13.20;;;7.70;;
11535;SDS011;5824;49.336;8.652;2023-10-19T08:03:13;10.77;;;7.00;;
11535;SDS011;5824;49.336;8.652;2023-10-19T08:05:41;16.37;;;7.53;;
11535;SDS011;5824;49.336;8.652;2023-10-19T08:08:06;12.97;;;7.40;;
11535;SDS011;5824;49.336;8.652;2023-10-19T08:10:32;13.03;;;7.83;;
11535;SDS011;5824;49.336;8.652;2023-10-19T08:12:59;17.93;;;7.40;;
11535;SDS011;5824;49.336;8.652;2023-10-19T08:15:26;12.23;;;7.43;;
11535;SDS011;5824;49.336;8.652;2023-10-19T08:17:53;11.47;;;7.63;;
11535;SDS011;5824;49.336;8.652;2023-10-19T08:20:20;14.27;;;7.70;;
11535;SDS011;5824;49.336;8.652;2023-10-19T08:22:52;17.70;;;7.10;;
11535;SDS011;5824;49.336;8.652;2023-10-19T08:25:18;13.80;;;6.70;;
11535;SDS011;5824;49.336;8.652;2023-10-19T08:27:45;13.10;;;7.70;;
11535;SDS011;5824;49.336;8.652;2023-10-19T08:30:14;14.67;;;7.50;;
11535;SDS011;5824;49.336;8.652;2023-10-19T08:32:40;13.30;;;8.20;;
11535;SDS011;5824;49.336;8.652;2023-10-19T08:35:07;14.97;;;7.70;;
11535;SDS011;5824;49.336;8.652;2023-10-19T08:37:33;18.00;;;8.93;;
11535;SDS011;5824;49.336;8.652;2023-10-19T08:39:59;13.17;;;8.10;;
11535;SDS011;5824;49.336;8.652;2023-10-19T08:42:25;15.60;;;7.80;;
11535;SDS011;5824;49.336;8.652;2023-10-19T08:44:51;14.00;;;7.90;;
11535;SDS011;5824;49.336;8.652;2023-10-19T08:47:17;12.40;;;7.47;;
11535;SDS011;5824;49.336;8.652;2023-10-19T08:49:42;12.90;;;7.40;;
11535;SDS011;5824;49.336;8.652;2023-10-19T08:52:08;15.17;;;7.27;;
11535;SDS011;5824;49.336;8.652;2023-10-19T08:54:34;12.13;;;7.80;;
11535;SDS011;5824;49.336;8.652;2023-10-19T08:57:00;11.13;;;7.20;;
11535;SDS011;5824;49.336;8.652;2023-10-19T08:59:26;11.97;;;7.10;;
11535;SDS011;5824;49.336;8.652;2023-10-19T09:01:59;11.13;;;7.30;;
11535;SDS011;5824;49.336;8.652;2023-10-19T09:04:28;10.70;;;6.70;;
11535;SDS011;5824;49.336;8.652;2023-10-19T09:06:54;11.70;;;7.00;;
11535;SDS011;5824;49.336;8.652;2023-10-19T09:09:20;14.00;;;7.33;;
11535;SDS011;5824;49.336;8.652;2023-10-19T09:11:46;12.50;;;7.70;;
11535;SDS011;5824;49.336;8.652;2023-10-19T09:14:13;10.60;;;7.30;;
11535;SDS011;5824;49.336;8.652;2023-10-19T09:17:12;12.83;;;7.37;;
11535;SDS011;5824;49.336;8.652;2023-10-19T09:19:37;11.60;;;6.97;;
11535;SDS011;5824;49.336;8.652;2023-10-19T09:22:03;12.60;;;6.67;;
11535;SDS011;5824;49.336;8.652;2023-10-19T09:24:35;11.97;;;6.90;;
11535;SDS011;5824;49.336;8.652;2023-10-19T09:27:02;9.97;;;7.03;;
11535;SDS011;5824;49.336;8.652;2023-10-19T09:29:28;11.60;;;6.97;;
11535;SDS011;5824;49.336;8.652;2023-10-19T09:31:56;10.53;;;6.37;;
11535;SDS011;5824;49.336;8.652;2023-10-19T09:34:27;12.63;;;6.93;;
11535;SDS011;5824;49.336;8.652;2023-10-19T09:36:57;11.93;;;7.43;;
11535;SDS011;5824;49.336;8.652;2023-10-19T09:39:27;10.97;;;6.60;;
11535;SDS011;5824;49.336;8.652;2023-10-19T09:41:59;9.67;;;6.70;;
11535;SDS011;5824;49.336;8.652;2023-10-19T09:47:09;12.30;;;6.20;;
11535;SDS011;5824;49.336;8.652;2023-10-19T09:49:55;9.35;;;6.00;;
11535;SDS011;5824;49.336;8.652;2023-10-19T09:52:22;7.88;;;5.20;;
11535;SDS011;5824;49.336;8.652;2023-10-19T09:54:52;8.07;;;4.40;;
11535;SDS011;5824;49.336;8.652;2023-10-19T09:57:23;5.65;;;4.00;;
11535;SDS011;5824;49.336;8.652;2023-10-19T09:59:56;5.50;;;4.00;;
11535;SDS011;5824;49.336;8.652;2023-10-19T10:02:33;6.47;;;4.22;;
11535;SDS011;5824;49.336;8.652;2023-10-19T10:04:59;6.30;;;3.50;;
11535;SDS011;5824;49.336;8.652;2023-10-19T10:07:25;5.05;;;3.40;;
11535;SDS011;5824;49.336;8.652;2023-10-19T10:09:51;5.57;;;3.65;;
11535;SDS011;5824;49.336;8.652;2023-10-19T10:12:18;6.03;;;3.55;;
11535;SDS011;5824;49.336;8.652;2023-10-19T10:15:02;6.70;;;3.70;;
11535;SDS011;5824;49.336;8.652;2023-10-19T10:17:35;6.95;;;3.70;;
11535;SDS011;5824;49.336;8.652;2023-10-19T10:22:38;6.38;;;3.47;;
11535;SDS011;5824;49.336;8.652;2023-10-19T10:25:04;6.27;;;3.30;;
11535;SDS011;5824;49.336;8.652;2023-10-19T10:27:30;6.10;;;3.67;;
11535;SDS011;5824;49.336;8.652;2023-10-19T10:32:42;6.03;;;3.13;;
11535;SDS011;5824;49.336;8.652;2023-10-19T10:38:06;7.67;;;3.53;;
11535;SDS011;5824;49.336;8.652;2023-10-19T10:43:08;7.07;;;3.60;;
11535;SDS011;5824;49.336;8.652;2023-10-19T10:45:35;8.70;;;3.30;;
11535;SDS011;5824;49.336;8.652;2023-10-19T10:48:01;5.67;;;2.97;;
11535;SDS011;5824;49.336;8.652;2023-10-19T10:50:27;6.60;;;3.50;;
11535;SDS011;5824;49.336;8.652;2023-10-19T10:52:53;6.13;;;3.90;;
11535;SDS011;5824;49.336;8.652;2023-10-19T10:55:23;6.20;;;4.00;;
11535;SDS011;5824;49.336;8.652;2023-10-19T10:57:50;7.97;;;4.27;;
11535;SDS011;5824;49.336;8.652;2023-10-19T11:00:16;7.10;;;4.20;;
11535;SDS011;5824;49.336;8.652;2023-10-19T11:02:44;6.07;;;3.60;;
11535;SDS011;5824;49.336;8.652;2023-10-19T11:05:14;7.10;;;4.40;;
11535;SDS011;5824;49.336;8.652;2023-10-19T11:07:41;6.90;;;4.40;;
11535;SDS011;5824;49.336;8.652;2023-10-19T11:10:28;11.60;;;4.40;;
11535;SDS011;5824;49.336;8.652;2023-10-19T11:12:59;6.27;;;4.37;;
11535;SDS011;5824;49.336;8.652;2023-10-19T11:15:29;8.73;;;4.90;;
11535;SDS011;5824;49.336;8.652;2023-10-19T11:17:55;9.53;;;5.13;;
11535;SDS011;5824;49.336;8.652;2023-10-19T11:20:21;8.53;;;4.20;;
11535;SDS011;5824;49.336;8.652;2023-10-19T11:22:48;8.70;;;5.13;;
11535;SDS011;5824;49.336;8.652;2023-10-19T11:25:22;11.77;;;5.87;;
11535;SDS011;5824;49.336;8.652;2023-10-19T11:27:49;8.17;;;5.23;;
11535;SDS011;5824;49.336;8.652;2023-10-19T11:30:28;9.20;;;5.37;;
11535;SDS011;5824;49.336;8.652;2023-10-19T11:32:56;9.47;;;5.73;;
11535;SDS011;5824;49.336;8.652;2023-10-19T11:35:25;7.50;;;5.50;;
11535;SDS011;5824;49.336;8.652;2023-10-19T11:37:53;7.87;;;5.87;;
11535;SDS011;5824;49.336;8.652;2023-10-19T11:40:20;8.93;;;5.00;;
11535;SDS011;5824;49.336;8.652;2023-10-19T11:42:46;15.47;;;6.10;;
11535;SDS011;5824;49.336;8.652;2023-10-19T11:45:13;9.30;;;6.00;;
11535;SDS011;5824;49.336;8.652;2023-10-19T11:47:38;11.40;;;6.03;;
11535;SDS011;5824;49.336;8.652;2023-10-19T11:50:04;10.10;;;6.03;;
11535;SDS011;5824;49.336;8.652;2023-10-19T11:52:30;10.30;;;6.20;;
11535;SDS011;5824;49.336;8.652;2023-10-19T11:54:56;11.80;;;6.13;;
11535;SDS011;5824;49.336;8.652;2023-10-19T11:57:23;19.90;;;9.60;;
11535;SDS011;5824;49.336;8.652;2023-10-19T11:59:49;17.80;;;8.40;;
11535;SDS011;5824;49.336;8.652;2023-10-19T12:02:20;13.43;;;6.97;;
11535;SDS011;5824;49.336;8.652;2023-10-19T12:04:46;13.03;;;8.03;;
11535;SDS011;5824;49.336;8.652;2023-10-19T12:07:12;11.90;;;7.10;;
11535;SDS011;5824;49.336;8.652;2023-10-19T12:09:37;10.90;;;7.20;;
11535;SDS011;5824;49.336;8.652;2023-10-19T12:12:06;16.73;;;7.90;;
11535;SDS011;5824;49.336;8.652;2023-10-19T12:14:32;15.27;;;7.90;;
11535;SDS011;5824;49.336;8.652;2023-10-19T12:16:59;11.83;;;7.30;;
11535;SDS011;5824;49.336;8.652;2023-10-19T12:19:27;16.13;;;7.77;;
11535;SDS011;5824;49.336;8.652;2023-10-19T12:21:54;15.90;;;7.90;;
11535;SDS011;5824;49.336;8.652;2023-10-19T12:24:20;14.00;;;8.47;;
11535;SDS011;5824;49.336;8.652;2023-10-19T12:26:46;14.20;;;7.50;;
11535;SDS011;5824;49.336;8.652;2023-10-19T12:29:12;17.03;;;9.20;;
11535;SDS011;5824;49.336;8.652;2023-10-19T12:31:39;14.20;;;8.17;;
11535;SDS011;5824;49.336;8.652;2023-10-19T12:34:06;13.23;;;8.40;;
11535;SDS011;5824;49.336;8.652;2023-10-19T12:36:32;20.80;;;9.33;;
11535;SDS011;5824;49.336;8.652;2023-10-19T12:38:59;16.03;;;8.97;;
11535;SDS011;5824;49.336;8.652;2023-10-19T12:41:26;18.60;;;9.30;;
11535;SDS011;5824;49.336;8.652;2023-10-19T12:43:52;12.43;;;8.10;;
11535;SDS011;5824;49.336;8.652;2023-10-19T12:46:22;14.10;;;8.00;;
11535;SDS011;5824;49.336;8.652;2023-10-19T12:48:50;16.63;;;8.77;;
11535;SDS011;5824;49.336;8.652;2023-10-19T12:51:20;13.33;;;8.10;;
11535;SDS011;5824;49.336;8.652;2023-10-19T12:53:50;13.53;;;8.30;;
11535;SDS011;5824;49.336;8.652;2023-10-19T12:56:19;14.43;;;8.00;;
11535;SDS011;5824;49.336;8.652;2023-10-19T12:58:45;15.67;;;8.90;;
11535;SDS011;5824;49.336;8.652;2023-10-19T13:01:13;16.23;;;9.00;;
11535;SDS011;5824;49.336;8.652;2023-10-19T13:03:43;16.63;;;9.17;;
11535;SDS011;5824;49.336;8.652;2023-10-19T13:06:10;14.13;;;9.00;;
11535;SDS011;5824;49.336;8.652;2023-10-19T13:08:37;17.20;;;10.00;;
11535;SDS011;5824;49.336;8.652;2023-10-19T13:11:05;13.80;;;8.50;;
11535;SDS011;5824;49.336;8.652;2023-10-19T13:13:31;16.43;;;8.23;;
11535;SDS011;5824;49.336;8.652;2023-10-19T13:15:57;15.10;;;9.20;;
11535;SDS011;5824;49.336;8.652;2023-10-19T13:18:22;14.23;;;7.60;;
11535;SDS011;5824;49.336;8.652;2023-10-19T13:20:54;15.97;;;9.47;;
11535;SDS011;5824;49.336;8.652;2023-10-19T13:23:22;14.87;;;8.80;;
11535;SDS011;5824;49.336;8.652;2023-10-19T13:25:47;11.70;;;8.23;;
11535;SDS011;5824;49.336;8.652;2023-10-19T13:28:22;14.53;;;8.83;;
11535;SDS011;5824;49.336;8.652;2023-10-19T13:30:50;18.03;;;8.63;;
11535;SDS011;5824;49.336;8.652;2023-10-19T13:33:16;17.93;;;8.57;;
11535;SDS011;5824;49.336;8.652;2023-10-19T13:35:43;13.23;;;8.70;;
11535;SDS011;5824;49.336;8.652;2023-10-19T13:38:11;12.50;;;8.37;;
11535;SDS011;5824;49.336;8.652;2023-10-19T13:40:38;14.83;;;8.57;;
11535;SDS011;5824;49.336;8.652;2023-10-19T13:43:05;14.13;;;7.90;;
11535;SDS011;5824;49.336;8.652;2023-10-19T13:45:36;16.17;;;8.47;;
11535;SDS011;5824;49.336;8.652;2023-10-19T13:48:05;15.00;;;8.90;;
11535;SDS011;5824;49.336;8.652;2023-10-19T13:50:33;16.90;;;8.17;;
11535;SDS011;5824;49.336;8.652;2023-10-19T13:53:00;17.03;;;9.97;;
11535;SDS011;5824;49.336;8.652;2023-10-19T13:55:27;15.70;;;8.50;;
11535;SDS011;5824;49.336;8.652;2023-10-19T13:57:53;15.10;;;8.83;;
11535;SDS011;5824;49.336;8.652;2023-10-19T14:00:21;13.67;;;8.23;;
11535;SDS011;5824;49.336;8.652;2023-10-19T14:02:55;14.47;;;8.37;;
11535;SDS011;5824;49.336;8.652;2023-10-19T14:05:22;12.27;;;6.93;;
11535;SDS011;5824;49.336;8.652;2023-10-19T14:07:49;20.40;;;7.70;;
11535;SDS011;5824;49.336;8.652;2023-10-19T14:10:18;13.30;;;7.27;;
11535;SDS011;5824;49.336;8.652;2023-10-19T14:12:47;15.53;;;9.57;;
11535;SDS011;5824;49.336;8.652;2023-10-19T14:15:17;12.00;;;7.50;;
11535;SDS011;5824;49.336;8.652;2023-10-19T14:17:44;16.57;;;7.73;;
11535;SDS011;5824;49.336;8.652;2023-10-19T14:20:12;12.57;;;7.80;;
11535;SDS011;5824;49.336;8.652;2023-10-19T14:23:00;16.73;;;9.33;;
11535;SDS011;5824;49.336;8.652;2023-10-19T14:25:24;15.53;;;8.93;;
11535;SDS011;5824;49.336;8.652;2023-10-19T14:27:51;12.90;;;7.90;;
11535;SDS011;5824;49.336;8.652;2023-10-19T14:30:23;13.20;;;7.10;;
11535;SDS011;5824;49.336;8.652;2023-10-19T14:32:49;11.57;;;6.60;;
11535;SDS011;5824;49.336;8.652;2023-10-19T14:35:19;9.30;;;6.40;;
11535;SDS011;5824;49.336;8.652;2023-10-19T14:37:46;8.83;;;5.37;;
11535;SDS011;5824;49.336;8.652;2023-10-19T14:40:15;8.60;;;5.70;;
11535;SDS011;5824;49.336;8.652;2023-10-19T14:42:42;9.40;;;6.10;;
11535;SDS011;5824;49.336;8.652;2023-10-19T14:45:09;16.10;;;6.80;;
11535;SDS011;5824;49.336;8.652;2023-10-19T14:47:36;16.43;;;6.63;;
11535;SDS011;5824;49.336;8.652;2023-10-19T14:50:03;11.97;;;7.10;;
11535;SDS011;5824;49.336;8.652;2023-10-19T14:52:29;13.87;;;7.50;;
11535;SDS011;5824;49.336;8.652;2023-10-19T14:54:55;13.10;;;7.57;;
11535;SDS011;5824;49.336;8.652;2023-10-19T14:57:20;13.40;;;8.10;;
11535;SDS011;5824;49.336;8.652;2023-10-19T14:59:46;10.40;;;7.37;;
11535;SDS011;5824;49.336;8.652;2023-10-19T15:02:12;14.90;;;8.40;;
11535;SDS011;5824;49.336;8.652;2023-10-19T15:04:38;14.27;;;9.27;;
11535;SDS011;5824;49.336;8.652;2023-10-19T15:07:04;17.87;;;9.70;;